To NAV CANADA Home Page Login to a new session Search on AWWS site Feedback and Comments Disclaimer Vers la page française équivalente Tips FAQ What's new on the site To the Forecasts and Observations / NOTAM section To "File a Flight Plan" website Publications and other links Update of the User's profile FIC Telephone Numbers My Weather Data Folder Route Weather Data Regional Weather Data Local Weather Data To the Forecasts and Observations / NOTAM section
Request Generated 10/07/2015 at 02:28:08 UTC . Weather information available at that time is displayed.



METAR CYDB 070200Z AUTO 12004KT 9SM CLR 04/M07 A2982 RMK SLP146=
METAR CYDB 070100Z AUTO 10004KT 9SM CLR 07/M04 A2982 RMK SLP141=
METAR CYDB 070000Z AUTO 10006KT 9SM CLR 07/M04 A2983 RMK SLP143=

TAF CYDB 062341Z 0700/0712 08008KT P6SM SKC
BECMG 0708/0710 16006KT
Your time UTC time
Weather data provided by Environment Canada and NAV CANADA